createdAt,value
2023-05-10T04:00:45.589Z,12.38
2023-05-10T04:01:46.573Z,12.34
2023-05-10T04:02:46.647Z,12.35
2023-05-10T04:03:46.617Z,12.35
2023-05-10T04:04:46.563Z,12.35
2023-05-10T04:05:46.515Z,12.39
2023-05-10T04:06:46.522Z,12.39
2023-05-10T04:07:46.501Z,12.39
2023-05-10T04:08:46.543Z,12.39
2023-05-10T04:09:46.522Z,12.41
2023-05-10T04:10:46.444Z,12.39
2023-05-10T04:11:46.453Z,12.38
2023-05-10T04:12:46.447Z,12.38
2023-05-10T04:13:46.433Z,12.34
2023-05-10T04:14:46.403Z,12.34
2023-05-10T04:15:46.402Z,12.35
2023-05-10T04:16:46.442Z,12.37
2023-05-10T04:17:46.435Z,12.38
2023-05-10T04:18:46.378Z,12.42
2023-05-10T04:19:46.395Z,12.42
2023-05-10T04:20:46.376Z,12.42
2023-05-10T04:21:46.341Z,12.32
2023-05-10T04:22:46.327Z,12.32
2023-05-10T04:23:46.375Z,12.34
2023-05-10T04:24:46.294Z,12.34
2023-05-10T04:25:46.650Z,12.34
2023-05-10T04:26:46.286Z,12.38
2023-05-10T04:27:46.327Z,12.37
2023-05-10T04:28:46.260Z,12.39
2023-05-10T04:29:46.251Z,12.38
2023-05-10T04:30:46.274Z,12.41
2023-05-10T04:31:46.382Z,12.35
2023-05-10T04:32:46.279Z,12.34
2023-05-10T04:33:46.237Z,12.34
2023-05-10T04:34:46.228Z,12.35
2023-05-10T04:35:46.205Z,12.35
2023-05-10T04:36:46.196Z,12.35
2023-05-10T04:37:46.202Z,12.37
2023-05-10T04:38:46.158Z,12.41
2023-05-10T04:39:46.138Z,12.45
2023-05-10T04:40:46.158Z,12.46
2023-05-10T04:41:46.129Z,12.47
2023-05-10T04:42:46.120Z,12.45
2023-05-10T04:43:46.111Z,12.42
2023-05-10T04:44:46.099Z,12.46
2023-05-10T04:45:46.112Z,12.45
2023-05-10T04:46:46.134Z,12.47
2023-05-10T04:47:46.108Z,12.45
2023-05-10T04:48:46.040Z,12.45
2023-05-10T04:49:46.072Z,12.45
2023-05-10T04:50:46.040Z,12.42
2023-05-10T04:51:46.041Z,12.42
2023-05-10T04:52:46.042Z,12.47
2023-05-10T04:53:54.135Z,12.50
2023-05-10T04:54:46.058Z,12.45
2023-05-10T04:55:46.012Z,12.47
2023-05-10T04:56:45.986Z,12.52
2023-05-10T04:57:45.962Z,12.52
2023-05-10T04:58:45.939Z,12.52
2023-05-10T04:59:46.153Z,12.54
2023-05-10T05:00:45.931Z,12.59
2023-05-10T05:01:45.961Z,12.57
2023-05-10T05:02:45.953Z,12.59
2023-05-10T05:03:46.002Z,12.67
2023-05-10T05:04:45.913Z,12.62
2023-05-10T05:05:45.940Z,12.59
2023-05-10T05:06:45.881Z,12.60
2023-05-10T05:07:45.850Z,12.57
2023-05-10T05:08:45.856Z,12.57
2023-05-10T05:09:45.894Z,12.62
2023-05-10T05:10:45.817Z,12.60
2023-05-10T05:11:45.845Z,12.62
2023-05-10T05:12:45.842Z,12.67
2023-05-10T05:13:45.805Z,12.72
2023-05-10T05:14:45.777Z,12.77
2023-05-10T05:15:45.884Z,12.71
2023-05-10T05:16:45.778Z,12.67
2023-05-10T05:17:45.795Z,12.68
2023-05-10T05:18:45.769Z,12.72
2023-05-10T05:19:45.751Z,12.82
2023-05-10T05:20:45.719Z,12.79
2023-05-10T05:21:45.738Z,12.74
2023-05-10T05:22:45.846Z,12.78
2023-05-10T05:23:45.734Z,12.85
2023-05-10T05:24:45.678Z,12.86
2023-05-10T05:25:45.697Z,12.71
2023-05-10T05:26:45.696Z,12.74
2023-05-10T05:27:45.686Z,12.72
2023-05-10T05:28:45.678Z,12.78
2023-05-10T05:29:45.683Z,12.86
2023-05-10T05:30:45.643Z,12.90
2023-05-10T05:31:46.566Z,12.90
2023-05-10T05:32:46.562Z,12.89
2023-05-10T05:33:45.617Z,12.96
2023-05-10T05:34:45.609Z,13.03
2023-05-10T05:35:45.567Z,12.93
2023-05-10T05:36:45.594Z,12.90
2023-05-10T05:37:45.547Z,12.86
2023-05-10T05:38:45.610Z,12.92
2023-05-10T05:39:45.538Z,13.01
2023-05-10T05:40:45.508Z,13.01
2023-05-10T05:41:45.506Z,13.04
2023-05-10T05:42:45.511Z,13.10
2023-05-10T05:43:45.480Z,13.19
2023-05-10T05:44:45.480Z,13.20
2023-05-10T05:45:45.515Z,13.29
2023-05-10T05:46:45.463Z,13.39
2023-05-10T05:47:45.494Z,13.45
2023-05-10T05:48:45.462Z,13.33
2023-05-10T05:49:45.422Z,13.33
2023-05-10T05:50:45.399Z,13.39
2023-05-10T05:51:45.500Z,13.32
2023-05-10T05:52:45.400Z,13.25
2023-05-10T05:53:45.385Z,13.25
2023-05-10T05:54:45.370Z,13.17
2023-05-10T05:55:45.380Z,13.17
2023-05-10T05:56:45.359Z,13.17
2023-05-10T05:57:45.348Z,13.20
2023-05-10T05:58:45.316Z,13.30
2023-05-10T05:59:45.379Z,13.38
2023-05-10T06:00:45.356Z,13.30
2023-05-10T06:01:45.333Z,13.29
2023-05-10T06:02:45.467Z,13.26
2023-05-10T06:03:45.457Z,13.22
2023-05-10T06:04:45.284Z,13.26
2023-05-10T06:05:45.275Z,13.36
2023-05-10T06:06:45.254Z,13.44
2023-05-10T06:07:45.275Z,13.49
2023-05-10T06:08:45.232Z,13.39
2023-05-10T06:09:45.247Z,13.38
2023-05-10T06:10:45.205Z,13.46
2023-05-10T06:11:45.194Z,13.49
2023-05-10T06:12:45.229Z,13.52
2023-05-10T06:13:45.171Z,13.46
2023-05-10T06:14:45.170Z,13.45
2023-05-10T06:15:45.196Z,13.44
2023-05-10T06:16:45.152Z,13.44
2023-05-10T06:17:45.222Z,13.49
2023-05-10T06:18:45.118Z,13.51
2023-05-10T06:19:45.120Z,13.46
2023-05-10T06:20:45.094Z,13.38
2023-05-10T06:21:45.089Z,13.30
2023-05-10T06:22:45.155Z,13.32
2023-05-10T06:23:45.095Z,13.32
2023-05-10T06:24:45.073Z,13.29
2023-05-10T06:25:45.060Z,13.29
2023-05-10T06:26:45.053Z,13.33
2023-05-10T06:27:49.094Z,13.38
2023-05-10T06:28:45.012Z,13.45
2023-05-10T06:29:45.003Z,13.38
2023-05-10T06:30:44.979Z,13.28
2023-05-10T06:31:45.044Z,13.25
2023-05-10T06:32:45.045Z,13.26
2023-05-10T06:33:44.969Z,13.26
2023-05-10T06:34:44.968Z,13.33
2023-05-10T06:35:44.944Z,13.41
2023-05-10T06:36:44.956Z,13.30
2023-05-10T06:37:44.956Z,13.36
2023-05-10T06:38:44.930Z,13.49
2023-05-10T06:39:44.898Z,13.49
2023-05-10T06:40:44.894Z,13.49
2023-05-10T06:41:45.049Z,13.52
2023-05-10T06:42:44.860Z,13.52
2023-05-10T06:43:44.917Z,13.51
2023-05-10T06:44:44.832Z,13.57
2023-05-10T06:45:44.842Z,13.64
2023-05-10T06:46:44.874Z,13.67
2023-05-10T06:47:44.905Z,13.64
2023-05-10T06:48:44.789Z,13.59
2023-05-10T06:49:44.815Z,13.52
2023-05-10T06:50:44.866Z,13.52
2023-05-10T06:51:44.795Z,13.51
2023-05-10T06:52:44.774Z,13.49
2023-05-10T06:53:44.778Z,13.48
2023-05-10T06:54:44.797Z,13.44
2023-05-10T06:55:44.813Z,13.44
2023-05-10T06:56:44.732Z,13.36
2023-05-10T06:57:44.709Z,13.33
2023-05-10T06:58:44.793Z,13.36
2023-05-10T06:59:44.704Z,13.41
2023-05-10T07:00:44.860Z,13.32
2023-05-10T07:01:44.713Z,13.33
2023-05-10T07:02:44.675Z,13.39
2023-05-10T07:03:44.654Z,13.49
2023-05-10T07:04:44.718Z,13.51
2023-05-10T07:05:44.653Z,13.54
2023-05-10T07:06:44.599Z,13.54
2023-05-10T07:07:44.616Z,13.46
2023-05-10T07:08:44.585Z,13.49
2023-05-10T07:09:44.629Z,13.45
2023-05-10T07:10:44.558Z,13.46
2023-05-10T07:11:44.589Z,13.52
2023-05-10T07:12:44.616Z,13.52
2023-05-10T07:13:44.581Z,13.55
2023-05-10T07:14:44.534Z,13.57
2023-05-10T07:15:44.531Z,13.60
2023-05-10T07:16:44.551Z,13.62
2023-05-10T07:17:45.905Z,13.62
2023-05-10T07:18:44.508Z,13.64
2023-05-10T07:19:44.485Z,13.63
2023-05-10T07:20:44.474Z,13.63
2023-05-10T07:21:44.471Z,13.66
2023-05-10T07:22:44.459Z,13.64
2023-05-10T07:23:45.247Z,13.60
2023-05-10T07:24:44.487Z,13.69
2023-05-10T07:25:44.439Z,13.71
2023-05-10T07:26:44.412Z,13.79
2023-05-10T07:27:44.406Z,13.73
2023-05-10T07:28:44.398Z,13.77
2023-05-10T07:29:44.386Z,13.88
2023-05-10T07:30:44.436Z,13.96
2023-05-10T07:31:44.366Z,13.87
2023-05-10T07:32:44.377Z,13.84
2023-05-10T07:33:44.383Z,13.84
2023-05-10T07:34:44.322Z,13.87
2023-05-10T07:35:44.323Z,13.92
2023-05-10T07:36:44.328Z,13.92
2023-05-10T07:37:44.348Z,13.96
2023-05-10T07:38:44.268Z,13.89
2023-05-10T07:39:44.275Z,13.87
2023-05-10T07:40:44.272Z,13.91
2023-05-10T07:41:44.266Z,13.92
2023-05-10T07:42:44.266Z,13.87
2023-05-10T07:43:44.224Z,13.75
2023-05-10T07:44:44.219Z,13.67
2023-05-10T07:45:44.260Z,13.77
2023-05-10T07:46:44.233Z,13.84
2023-05-10T07:47:44.236Z,13.85
2023-05-10T07:48:44.176Z,13.84
2023-05-10T07:49:44.167Z,13.89
2023-05-10T07:50:44.140Z,13.89
2023-05-10T07:51:44.144Z,13.96
2023-05-10T07:52:44.151Z,13.84
2023-05-10T07:53:44.153Z,13.87
2023-05-10T07:54:44.111Z,13.92
2023-05-10T07:55:44.094Z,13.92
2023-05-10T07:56:44.080Z,13.84
2023-05-10T07:57:44.071Z,13.84
2023-05-10T07:58:44.071Z,13.91
2023-05-10T07:59:44.040Z,14.07
2023-05-10T08:00:44.067Z,14.14
2023-05-10T08:01:44.079Z,14.33
2023-05-10T08:02:44.113Z,14.50
2023-05-10T08:03:44.060Z,14.65
2023-05-10T08:04:44.136Z,14.75
2023-05-10T08:05:44.029Z,14.83
2023-05-10T08:06:43.962Z,14.75
2023-05-10T08:07:44.026Z,14.86
2023-05-10T08:08:43.964Z,14.88
2023-05-10T08:09:43.942Z,14.91
2023-05-10T08:10:43.963Z,15.07
2023-05-10T08:11:43.949Z,15.16
2023-05-10T08:12:43.979Z,15.21
2023-05-10T08:13:43.895Z,15.34
2023-05-10T08:14:43.890Z,15.44
2023-05-10T08:15:43.930Z,15.57
2023-05-10T08:16:43.924Z,15.44
2023-05-10T08:17:43.916Z,15.56
2023-05-10T08:18:43.965Z,15.60
2023-05-10T08:19:43.841Z,15.53
2023-05-10T08:20:43.846Z,16.04
2023-05-10T08:21:43.802Z,16.02
2023-05-10T08:22:43.809Z,16.00
2023-05-10T08:23:43.844Z,15.80
2023-05-10T08:24:43.808Z,16.01
2023-05-10T08:25:43.775Z,16.01
2023-05-10T08:26:43.778Z,15.83
2023-05-10T08:27:43.731Z,16.07
2023-05-10T08:28:43.753Z,16.20
2023-05-10T08:29:50.108Z,16.39
2023-05-10T08:30:43.728Z,16.45
2023-05-10T08:31:43.869Z,16.14
2023-05-10T08:32:43.726Z,15.89
2023-05-10T08:33:44.524Z,15.86
2023-05-10T08:34:43.690Z,15.82
2023-05-10T08:35:43.691Z,15.96
2023-05-10T08:36:43.673Z,15.93
2023-05-10T08:37:43.642Z,15.90
2023-05-10T08:38:43.706Z,15.57
2023-05-10T08:39:43.611Z,15.44
2023-05-10T08:40:43.624Z,15.49
2023-05-10T08:41:43.613Z,15.76
2023-05-10T08:42:43.632Z,15.86
2023-05-10T08:43:43.580Z,16.00
2023-05-10T08:44:43.655Z,16.24
2023-05-10T08:45:43.577Z,16.46
2023-05-10T08:46:43.589Z,16.79
2023-05-10T08:47:43.585Z,16.46
2023-05-10T08:48:43.540Z,16.46
2023-05-10T08:49:43.523Z,16.68
2023-05-10T08:50:43.537Z,16.66
2023-05-10T08:51:43.933Z,16.42
2023-05-10T08:52:43.488Z,16.15
2023-05-10T08:53:43.501Z,16.57
2023-05-10T08:54:43.501Z,16.91
2023-05-10T08:55:43.458Z,17.11
2023-05-10T08:56:43.465Z,17.19
2023-05-10T08:57:43.452Z,17.22
2023-05-10T08:58:43.455Z,17.38
2023-05-10T08:59:43.416Z,17.77
2023-05-10T09:00:43.428Z,18.18
2023-05-10T09:01:43.423Z,18.17
2023-05-10T09:02:43.426Z,17.95
2023-05-10T09:03:43.388Z,17.95
2023-05-10T09:04:43.526Z,17.89
2023-05-10T09:05:43.378Z,17.92
2023-05-10T09:06:43.338Z,18.21
2023-05-10T09:07:43.367Z,18.41
2023-05-10T09:08:43.370Z,18.75
2023-05-10T09:09:43.316Z,18.82
2023-05-10T09:10:43.339Z,18.57
2023-05-10T09:11:43.299Z,18.26
2023-05-10T09:12:43.364Z,18.15
2023-05-10T09:13:43.316Z,17.74
2023-05-10T09:14:43.265Z,17.46
2023-05-10T09:15:43.270Z,17.31
2023-05-10T09:16:43.269Z,17.03
2023-05-10T09:17:43.285Z,16.86
2023-05-10T09:18:43.279Z,16.53
2023-05-10T09:19:43.298Z,16.30
2023-05-10T09:20:43.204Z,16.30
2023-05-10T09:21:43.191Z,16.15
2023-05-10T09:22:43.254Z,16.23
2023-05-10T09:23:43.218Z,16.25
2023-05-10T09:24:43.211Z,16.20
2023-05-10T09:25:43.159Z,16.09
2023-05-10T09:26:43.127Z,15.96
2023-05-10T09:27:43.146Z,15.83
2023-05-10T09:28:43.145Z,15.87
2023-05-10T09:29:43.143Z,15.86
2023-05-10T09:30:43.145Z,15.80
2023-05-10T09:31:43.069Z,15.90
2023-05-10T09:32:43.111Z,16.09
2023-05-10T09:33:43.106Z,16.24
2023-05-10T09:34:43.051Z,16.96
2023-05-10T09:35:43.020Z,18.18
2023-05-10T09:36:43.035Z,19.33
2023-05-10T09:37:43.028Z,19.74
2023-05-10T09:38:43.051Z,20.39
2023-05-10T09:39:43.008Z,21.24
2023-05-10T09:40:42.995Z,21.98
2023-05-10T09:41:42.986Z,22.03
2023-05-10T09:42:42.969Z,20.38
2023-05-10T09:43:42.999Z,19.50
2023-05-10T09:44:42.957Z,18.90
2023-05-10T09:45:42.961Z,18.21
2023-05-10T09:46:42.990Z,17.72
2023-05-10T09:47:43.049Z,17.37
2023-05-10T09:48:42.919Z,16.89
2023-05-10T09:49:42.884Z,16.97
2023-05-10T09:50:42.955Z,16.98
2023-05-10T09:51:42.857Z,16.71
2023-05-10T09:52:42.889Z,16.75
2023-05-10T09:53:42.841Z,16.97
2023-05-10T09:54:42.858Z,17.41
2023-05-10T09:55:42.840Z,18.73
2023-05-10T09:56:42.845Z,19.81
2023-05-10T09:57:42.809Z,20.64
2023-05-10T09:58:42.790Z,21.52
2023-05-10T09:59:42.807Z,21.42
2023-05-10T10:00:42.782Z,19.84
2023-05-10T10:01:42.801Z,19.21
2023-05-10T10:02:42.767Z,18.87
2023-05-10T10:03:42.729Z,18.73
2023-05-10T10:04:42.775Z,18.51
2023-05-10T10:05:42.729Z,18.27
2023-05-10T10:06:42.701Z,18.29
2023-05-10T10:07:42.688Z,18.78
2023-05-10T10:08:42.750Z,18.88
2023-05-10T10:09:42.754Z,19.69
2023-05-10T10:10:42.695Z,21.13
2023-05-10T10:11:42.651Z,21.91
2023-05-10T10:12:42.640Z,21.13
2023-05-10T10:13:42.652Z,21.09
2023-05-10T10:14:42.650Z,20.41
2023-05-10T10:15:42.651Z,20.16
2023-05-10T10:16:55.431Z,19.58
2023-05-10T10:17:42.694Z,18.92
2023-05-10T10:18:42.583Z,18.67
2023-05-10T10:19:42.647Z,18.54
2023-05-10T10:20:42.569Z,18.36
2023-05-10T10:21:42.542Z,18.58
2023-05-10T10:22:42.547Z,18.84
2023-05-10T10:23:42.560Z,18.80
2023-05-10T10:24:42.519Z,18.70
2023-05-10T10:25:42.507Z,18.73
2023-05-10T10:26:42.509Z,18.58
2023-05-10T10:27:42.492Z,18.35
2023-05-10T10:28:42.528Z,18.05
2023-05-10T10:29:42.457Z,17.58
2023-05-10T10:30:42.520Z,17.23
2023-05-10T10:31:42.487Z,17.00
2023-05-10T10:32:42.514Z,16.81
2023-05-10T10:33:42.463Z,16.75
2023-05-10T10:34:42.450Z,16.52
2023-05-10T10:35:42.419Z,16.41
2023-05-10T10:36:42.389Z,16.05
2023-05-10T10:37:42.400Z,16.04
2023-05-10T10:38:42.416Z,16.05
2023-05-10T10:39:42.381Z,16.09
2023-05-10T10:40:42.354Z,16.27
2023-05-10T10:41:42.339Z,16.43
2023-05-10T10:42:42.365Z,16.53
2023-05-10T10:43:42.340Z,16.53
2023-05-10T10:44:42.298Z,16.73
2023-05-10T10:45:42.378Z,16.96
2023-05-10T10:46:42.378Z,17.04
2023-05-10T10:47:42.362Z,17.49
2023-05-10T10:48:42.265Z,18.10
2023-05-10T10:49:42.238Z,19.21
2023-05-10T10:50:42.239Z,20.43
2023-05-10T10:51:42.241Z,21.24
2023-05-10T10:52:42.288Z,20.89
2023-05-10T10:53:42.237Z,21.61
2023-05-10T10:54:42.198Z,22.03
2023-05-10T10:55:42.195Z,21.28
2023-05-10T10:56:42.190Z,21.42
2023-05-10T10:57:42.173Z,21.09
2023-05-10T10:58:42.158Z,21.49
2023-05-10T10:59:42.133Z,21.35
2023-05-10T11:00:42.204Z,20.84
2023-05-10T11:01:42.217Z,20.32
2023-05-10T11:02:42.198Z,18.94
2023-05-10T11:03:42.101Z,18.70
2023-05-10T11:04:42.248Z,18.48
2023-05-10T11:05:42.122Z,18.41
2023-05-10T11:06:42.081Z,18.67
2023-05-10T11:07:42.079Z,19.08
2023-05-10T11:08:42.110Z,19.37
2023-05-10T11:09:42.107Z,19.65
2023-05-10T11:10:42.053Z,20.23
2023-05-10T11:11:42.012Z,20.97
2023-05-10T11:12:42.032Z,21.21
2023-05-10T11:13:41.999Z,20.98
2023-05-10T11:14:42.015Z,20.88
2023-05-10T11:15:41.993Z,21.67
2023-05-10T11:16:41.989Z,22.46
2023-05-10T11:17:41.982Z,22.61
2023-05-10T11:18:42.095Z,22.20
2023-05-10T11:19:41.934Z,22.65
2023-05-10T11:20:41.932Z,22.39
2023-05-10T11:21:41.925Z,22.61
2023-05-10T11:22:41.915Z,21.16
2023-05-10T11:23:41.913Z,21.61
2023-05-10T11:24:41.909Z,22.47
2023-05-10T11:25:41.914Z,23.09
2023-05-10T11:26:41.877Z,22.94
2023-05-10T11:27:41.848Z,22.52
2023-05-10T11:28:41.851Z,22.21
2023-05-10T11:29:41.859Z,22.51
2023-05-10T11:30:41.872Z,22.72
2023-05-10T11:31:41.805Z,21.71
2023-05-10T11:32:41.829Z,22.14
2023-05-10T11:33:41.782Z,21.35
2023-05-10T11:34:41.810Z,21.28
2023-05-10T11:35:43.609Z,21.65
2023-05-10T11:36:41.756Z,21.67
2023-05-10T11:37:42.360Z,21.77
2023-05-10T11:38:41.886Z,22.28
2023-05-10T11:39:41.728Z,22.43
2023-05-10T11:40:41.730Z,22.14
2023-05-10T11:41:42.965Z,22.49
2023-05-10T11:42:41.730Z,22.64
2023-05-10T11:43:41.710Z,22.43
2023-05-10T11:44:41.665Z,22.72
2023-05-10T11:45:41.670Z,23.17
2023-05-10T11:46:41.740Z,23.48
2023-05-10T11:48:41.623Z,24.12
2023-05-10T11:49:41.621Z,24.53
2023-05-10T11:50:41.613Z,24.35
2023-05-10T11:51:41.642Z,25.45
2023-05-10T11:52:41.601Z,24.28
2023-05-10T11:53:41.573Z,24.12
2023-05-10T11:54:41.556Z,23.02
2023-05-10T11:55:41.577Z,23.25
2023-05-10T11:56:41.585Z,23.40
2023-05-10T11:57:41.549Z,23.84
2023-05-10T11:58:41.518Z,23.75
2023-05-10T11:59:43.089Z,22.94
2023-05-10T12:00:41.504Z,22.83
2023-05-10T12:01:41.515Z,23.05
2023-05-10T12:02:41.738Z,23.22
2023-05-10T12:03:41.734Z,22.24
2023-05-10T12:04:41.491Z,21.01
2023-05-10T12:05:42.865Z,20.10
2023-05-10T12:06:41.482Z,19.76
2023-05-10T12:07:41.425Z,19.46
2023-05-10T12:08:41.456Z,19.21
2023-05-10T12:09:44.097Z,18.99
2023-05-10T12:10:41.412Z,18.78
2023-05-10T12:11:43.907Z,18.57
2023-05-10T12:12:41.383Z,18.65
2023-05-10T12:13:41.357Z,19.23
2023-05-10T12:14:41.355Z,19.92
2023-05-10T12:15:41.356Z,19.33
2023-05-10T12:16:41.451Z,20.23
2023-05-10T12:17:43.340Z,21.12
2023-05-10T12:18:41.361Z,21.72
2023-05-10T12:19:41.294Z,22.47
2023-05-10T12:20:41.321Z,23.02
2023-05-10T12:21:41.329Z,24.02
2023-05-10T12:22:41.269Z,23.60
2023-05-10T12:23:41.246Z,23.50
2023-05-10T12:24:41.243Z,23.12
2023-05-10T12:25:41.288Z,22.60
2023-05-10T12:26:41.224Z,22.40
2023-05-10T12:27:41.240Z,22.24
2023-05-10T12:28:41.185Z,22.31
2023-05-10T12:29:42.716Z,22.70
2023-05-10T12:30:41.193Z,23.38
2023-05-10T12:31:41.178Z,23.58
2023-05-10T12:32:41.204Z,23.51
2023-05-10T12:33:41.158Z,23.38
2023-05-10T12:34:41.144Z,22.62
2023-05-10T12:35:42.982Z,21.96
2023-05-10T12:36:41.127Z,22.35
2023-05-10T12:37:41.102Z,22.61
2023-05-10T12:38:41.107Z,22.20
2023-05-10T12:39:41.114Z,22.14
2023-05-10T12:40:41.095Z,21.94
2023-05-10T12:41:42.891Z,22.09
2023-05-10T12:42:41.054Z,22.24
2023-05-10T12:43:41.104Z,22.36
2023-05-10T12:44:41.108Z,22.21
2023-05-10T12:45:41.014Z,21.67
2023-05-10T12:46:41.014Z,21.13
2023-05-10T12:47:43.754Z,20.64
2023-05-10T12:48:41.056Z,20.98
2023-05-10T12:49:40.978Z,21.04
2023-05-10T12:50:40.989Z,20.99
2023-05-10T12:51:40.948Z,20.88
2023-05-10T12:52:40.975Z,19.80
2023-05-10T12:53:44.212Z,19.56
2023-05-10T12:54:40.938Z,19.47
2023-05-10T12:55:40.904Z,19.63
2023-05-10T12:56:40.888Z,19.39
2023-05-10T12:57:40.896Z,19.46
2023-05-10T12:58:40.884Z,19.76
2023-05-10T12:59:40.882Z,19.86
2023-05-10T13:00:40.878Z,19.73
2023-05-10T13:01:40.950Z,19.65
2023-05-10T13:02:40.866Z,19.77
2023-05-10T13:03:40.815Z,19.59
2023-05-10T13:04:40.881Z,20.01
2023-05-10T13:05:40.789Z,20.29
2023-05-10T13:06:40.804Z,20.74
2023-05-10T13:07:40.809Z,21.06
2023-05-10T13:08:40.753Z,20.79
2023-05-10T13:09:40.769Z,21.01
2023-05-10T13:10:40.737Z,21.28
2023-05-10T13:11:40.745Z,21.31
2023-05-10T13:12:40.739Z,21.35
2023-05-10T13:13:40.713Z,21.17
2023-05-10T13:14:40.713Z,20.73
2023-05-10T13:15:40.693Z,20.20
2023-05-10T13:16:40.915Z,20.32
2023-05-10T13:17:40.700Z,20.39
2023-05-10T13:18:40.688Z,20.28
2023-05-10T13:19:40.636Z,20.18
2023-05-10T13:20:40.643Z,20.82
2023-05-10T13:21:40.726Z,21.27
2023-05-10T13:22:40.898Z,21.04
2023-05-10T13:23:40.618Z,20.82
2023-05-10T13:24:40.586Z,20.64
2023-05-10T13:25:40.617Z,20.39
2023-05-10T13:26:40.574Z,20.35
2023-05-10T13:27:40.584Z,20.14
2023-05-10T13:28:40.605Z,20.16
2023-05-10T13:29:41.138Z,20.29
2023-05-10T13:30:40.554Z,19.98
2023-05-10T13:31:40.564Z,19.69
2023-05-10T13:32:40.516Z,19.58
2023-05-10T13:33:40.501Z,19.54
2023-05-10T13:34:40.497Z,19.43
2023-05-10T13:35:40.512Z,19.13
2023-05-10T13:36:40.479Z,18.95
2023-05-10T13:37:40.471Z,19.02
2023-05-10T13:38:40.431Z,18.84
2023-05-10T13:39:40.473Z,18.82
2023-05-10T13:40:40.432Z,18.76
2023-05-10T13:41:40.447Z,18.75
2023-05-10T13:42:40.417Z,18.99
2023-05-10T13:43:40.384Z,19.11
2023-05-10T13:44:40.397Z,19.39
2023-05-10T13:45:40.394Z,19.68
2023-05-10T13:46:40.399Z,19.50
2023-05-10T13:47:40.433Z,19.36
2023-05-10T13:48:40.351Z,19.47
2023-05-10T13:49:40.359Z,19.71
2023-05-10T13:50:40.314Z,19.81
2023-05-10T13:51:40.322Z,20.06
2023-05-10T13:52:40.305Z,20.33
2023-05-10T13:53:40.337Z,20.57
2023-05-10T13:54:40.335Z,20.76
2023-05-10T13:55:40.254Z,20.66
2023-05-10T13:56:40.243Z,20.42
2023-05-10T13:57:40.239Z,20.50
2023-05-10T13:58:40.280Z,20.62
2023-05-10T13:59:40.242Z,20.24
2023-05-10T14:00:40.208Z,19.86
2023-05-10T14:01:40.216Z,19.84
2023-05-10T14:02:40.259Z,19.74
2023-05-10T14:03:40.513Z,19.29
2023-05-10T14:04:40.235Z,19.04
2023-05-10T14:05:40.160Z,19.13
2023-05-10T14:06:40.155Z,19.06
2023-05-10T14:07:40.157Z,19.04
2023-05-10T14:08:40.164Z,19.04
2023-05-10T14:09:40.123Z,19.14
2023-05-10T14:10:40.093Z,19.43
2023-05-10T14:11:40.148Z,19.43
2023-05-10T14:12:40.115Z,19.55
2023-05-10T14:13:40.076Z,19.87
2023-05-10T14:14:40.140Z,19.63
2023-05-10T14:15:40.043Z,19.33
2023-05-10T14:16:40.127Z,19.16
2023-05-10T14:17:40.090Z,19.37
2023-05-10T14:18:40.038Z,19.59
2023-05-10T14:19:40.140Z,19.47
2023-05-10T14:20:39.982Z,19.73
2023-05-10T14:21:40.008Z,19.76
2023-05-10T14:22:39.976Z,19.54
2023-05-10T14:23:39.953Z,19.43
2023-05-10T14:24:39.938Z,19.56
2023-05-10T14:25:39.941Z,19.77
2023-05-10T14:26:39.985Z,19.84
2023-05-10T14:27:39.909Z,19.95
2023-05-10T14:28:39.928Z,19.94
2023-05-10T14:29:39.895Z,19.94
2023-05-10T14:30:39.889Z,19.86
2023-05-10T14:31:39.929Z,20.01
2023-05-10T14:32:39.884Z,19.80
2023-05-10T14:33:39.842Z,19.62
2023-05-10T14:34:39.842Z,19.51
2023-05-10T14:35:40.030Z,19.40
2023-05-10T14:36:39.859Z,19.41
2023-05-10T14:37:39.798Z,19.56
2023-05-10T14:38:39.888Z,19.61
2023-05-10T14:39:39.785Z,19.48
2023-05-10T14:40:39.784Z,19.25
2023-05-10T14:41:39.764Z,19.11
2023-05-10T14:42:39.747Z,19.11
2023-05-10T14:43:39.735Z,19.06
2023-05-10T14:44:39.750Z,18.85
2023-05-10T14:45:39.752Z,18.85
2023-05-10T14:46:39.697Z,18.94
2023-05-10T14:47:39.724Z,18.75
2023-05-10T14:48:39.674Z,18.78
2023-05-10T14:49:39.775Z,18.78
2023-05-10T14:50:39.643Z,18.67
2023-05-10T14:51:39.645Z,18.58
2023-05-10T14:52:39.636Z,18.69
2023-05-10T14:53:39.629Z,18.66
2023-05-10T14:54:39.646Z,18.63
2023-05-10T14:55:39.604Z,18.45
2023-05-10T14:56:39.588Z,18.48
2023-05-10T14:57:39.586Z,18.48
2023-05-10T14:58:39.607Z,18.30
2023-05-10T14:59:39.598Z,18.30
2023-05-10T15:00:39.575Z,18.27
2023-05-10T15:01:39.597Z,18.26
2023-05-10T15:02:39.590Z,18.32
2023-05-10T15:03:39.763Z,18.37
2023-05-10T15:04:39.504Z,18.23
2023-05-10T15:05:39.506Z,18.10
2023-05-10T15:06:39.485Z,18.20
2023-05-10T15:07:39.482Z,18.26
2023-05-10T15:08:39.515Z,18.29
2023-05-10T15:09:39.456Z,18.05
2023-05-10T15:10:39.437Z,18.11
2023-05-10T15:11:39.470Z,18.15
2023-05-10T15:12:39.439Z,18.25
2023-05-10T15:13:39.429Z,18.15
2023-05-10T15:14:39.410Z,18.08
2023-05-10T15:15:39.431Z,18.17
2023-05-10T15:16:39.448Z,18.23
2023-05-10T15:17:39.436Z,18.26
2023-05-10T15:18:39.445Z,18.33
2023-05-10T15:19:39.352Z,18.41
2023-05-10T15:20:39.337Z,18.42
2023-05-10T15:21:39.330Z,18.50
2023-05-10T15:22:39.342Z,18.33
2023-05-10T15:23:39.319Z,18.36
2023-05-10T15:24:39.314Z,18.18
2023-05-10T15:25:39.310Z,18.14
2023-05-10T15:26:39.334Z,18.12
2023-05-10T15:27:39.295Z,18.15
2023-05-10T15:28:39.275Z,18.11
2023-05-10T15:29:39.287Z,18.11
2023-05-10T15:30:39.242Z,18.11
2023-05-10T15:31:39.289Z,18.18
2023-05-10T15:32:39.260Z,18.15
2023-05-10T15:33:39.237Z,18.17
2023-05-10T15:34:39.203Z,18.29
2023-05-10T15:35:39.225Z,18.35
2023-05-10T15:36:39.199Z,18.33
2023-05-10T15:37:39.176Z,18.42
2023-05-10T15:38:39.154Z,18.52
2023-05-10T15:39:39.157Z,18.62
2023-05-10T15:40:39.199Z,18.70
2023-05-10T15:41:39.363Z,18.80
2023-05-10T15:42:39.164Z,18.94
2023-05-10T15:43:39.134Z,18.95
2023-05-10T15:44:39.092Z,19.04
2023-05-10T15:45:39.134Z,19.08
2023-05-10T15:46:39.151Z,18.75
2023-05-10T15:47:39.821Z,18.58
2023-05-10T15:48:39.078Z,18.63
2023-05-10T15:49:39.063Z,18.72
2023-05-10T15:50:39.049Z,18.87
2023-05-10T15:51:39.022Z,19.14
2023-05-10T15:52:39.018Z,19.37
2023-05-10T15:53:42.535Z,19.51
2023-05-10T15:54:39.006Z,19.73
2023-05-10T15:55:39.006Z,19.78
2023-05-10T15:56:39.033Z,19.58
2023-05-10T15:57:38.969Z,19.73
2023-05-10T15:58:38.960Z,19.83
2023-05-10T15:59:38.969Z,20.03
2023-05-10T16:00:38.970Z,20.11
2023-05-10T16:01:38.930Z,20.20
2023-05-10T16:02:39.051Z,20.31
2023-05-10T16:03:38.968Z,19.98
2023-05-10T16:04:38.903Z,19.68
2023-05-10T16:05:38.916Z,19.50
2023-05-10T16:06:38.871Z,19.50
2023-05-10T16:07:38.856Z,19.63
2023-05-10T16:08:38.899Z,19.51
2023-05-10T16:09:38.883Z,19.47
2023-05-10T16:10:38.872Z,19.18
2023-05-10T16:11:38.810Z,19.13
2023-05-10T16:12:38.824Z,19.25
2023-05-10T16:13:38.813Z,19.22
2023-05-10T16:14:38.785Z,19.28
2023-05-10T16:15:38.794Z,19.39
2023-05-10T16:16:38.836Z,19.55
2023-05-10T16:17:38.894Z,19.55
2023-05-10T16:18:38.884Z,19.36
2023-05-10T16:19:38.752Z,19.44
2023-05-10T16:20:38.753Z,19.59
2023-05-10T16:21:38.741Z,19.61
2023-05-10T16:22:38.736Z,19.37
2023-05-10T16:23:38.731Z,19.37
2023-05-10T16:24:38.681Z,19.28
2023-05-10T16:25:38.671Z,19.28
2023-05-10T16:26:38.701Z,19.11
2023-05-10T16:27:38.676Z,19.00
2023-05-10T16:28:38.661Z,19.06
2023-05-10T16:29:38.630Z,19.13
2023-05-10T16:30:38.670Z,19.08
2023-05-10T16:31:38.620Z,18.95
2023-05-10T16:32:38.638Z,18.90
2023-05-10T16:33:38.627Z,18.87
2023-05-10T16:34:38.581Z,18.90
2023-05-10T16:35:38.569Z,18.98
2023-05-10T16:36:38.609Z,19.00
2023-05-10T16:37:38.581Z,19.14
2023-05-10T16:38:38.560Z,19.13
2023-05-10T16:39:38.531Z,18.81
2023-05-10T16:40:38.523Z,18.81
2023-05-10T16:41:38.542Z,18.85
2023-05-10T16:42:38.504Z,18.94
2023-05-10T16:43:38.483Z,18.65
2023-05-10T16:44:38.479Z,18.60
2023-05-10T16:45:38.470Z,18.36
2023-05-10T16:46:38.527Z,18.36
2023-05-10T16:47:38.482Z,18.30
2023-05-10T16:48:38.443Z,18.17
2023-05-10T16:49:38.452Z,18.18
2023-05-10T16:50:38.432Z,18.17
2023-05-10T16:51:39.208Z,18.10
2023-05-10T16:52:38.418Z,18.15
2023-05-10T16:53:38.379Z,18.05